National Weather Service Raw Text Product

Displaying AFOS PIL: TAFDSM Received: 2017-08-13 17:20 UTC


487 
FTUS43 KDMX 131720
TAFDSM
TAF
KDSM 131720Z 1318/1418 15003KT P6SM FEW060 OVC130
     FM140800 15006KT P6SM VCSH SCT035
     FM141600 20006KT P6SM BKN045=